Deadhorse, Alaska
Current Conditions -  °F | °C
As of 11:53 AM on Tuesday 27 Jan 2015 (Local Time) from PASC Reporting Station
Light Snow Light Snow  
Wind Chill: -38°   Ceiling: 1800
Heat Index: -11°   Visibility: 0.5mi
Dew Point: -18°   Wind: 24mph
Humidity: 71%   Direction: 250°WSW
Pressure: 30.26"   Gusts: NA
Location:  70.2°N, 148.46°W
Report Text: PASC 272053Z 25021KT 1/2SM R05/2600V3000FT -SN BLSN VV018 M24/M28 A3026 RMK AO2 SLP249 P0000 60000 T12391278 51013
Loading
Personal Weather Stations






























Interactive Weather Map New forecast layout! Learn more

10-Day Weather Forecast

Advertisements
Track Severe Weather on mobile